Time;durP1;ratioP1;P1;durP2;ratioP2;P2;SDS_P1;SDS_P2;PMS_P1;PMS_P2;Temp;Humidity;BMP_temperature;BMP_pressure;BME280_temperature;BME280_humidity;BME280_pressure;Samples;Min_cycle;Max_cycle;Signal;HPM_P1;HPM_P2
2022/05/06 00:00:11;;;;;;;0.40;0.40;;;17.60;62.90;;;;;;4199898;28;20056;-66
2022/05/06 00:02:37;;;;;;;0.20;0.20;;;17.60;63.00;;;;;;4206837;28;20043;-66
2022/05/06 00:05:01;;;;;;;0.00;0.00;;;17.60;63.10;;;;;;4207442;28;20052;-66
2022/05/06 00:07:27;;;;;;;0.10;0.10;;;17.60;63.10;;;;;;4200609;28;20044;-66
2022/05/06 00:09:50;;;;;;;0.43;0.43;;;17.60;63.10;;;;;;4207509;28;20507;-66
2022/05/06 00:12:17;;;;;;;0.00;0.00;;;17.60;63.20;;;;;;4207768;28;20048;-66
2022/05/06 00:14:40;;;;;;;0.00;0.00;;;17.60;63.20;;;;;;4206748;28;20475;-66
2022/05/06 00:17:04;;;;;;;0.00;0.00;;;17.60;63.20;;;;;;4207802;28;20051;-65
2022/05/06 00:19:27;;;;;;;0.13;0.13;;;17.60;63.30;;;;;;4201395;28;20051;-66
2022/05/06 00:21:54;;;;;;;0.03;0.03;;;17.60;63.70;;;;;;4213725;28;20047;-65
2022/05/06 00:24:19;;;;;;;0.85;0.85;;;17.60;63.70;;;;;;4197880;28;20067;-65
2022/05/06 00:26:42;;;;;;;0.63;0.63;;;17.60;63.60;;;;;;4211685;28;20052;-65
2022/05/06 00:29:05;;;;;;;0.00;0.00;;;17.50;63.60;;;;;;4191508;28;20072;-65
2022/05/06 00:31:29;;;;;;;3.00;0.77;;;17.50;63.60;;;;;;4206585;28;20055;-66
2022/05/06 00:33:52;;;;;;;0.55;0.55;;;17.50;63.60;;;;;;4190017;28;20140;-65
2022/05/06 00:36:15;;;;;;;0.00;0.00;;;17.50;63.60;;;;;;4205873;28;20074;-66
2022/05/06 00:38:39;;;;;;;0.22;0.22;;;17.50;63.60;;;;;;4207458;28;20043;-66
2022/05/06 00:41:03;;;;;;;0.30;0.30;;;17.50;63.60;;;;;;4205266;28;20106;-66
2022/05/06 00:43:27;;;;;;;0.32;0.32;;;17.50;63.70;;;;;;4192703;28;20121;-66
2022/05/06 00:45:52;;;;;;;0.00;0.00;;;17.50;63.70;;;;;;4191978;28;20137;-66
2022/05/06 00:48:21;;;;;;;1.17;1.08;;;17.50;63.70;;;;;;4206752;28;20052;-65
2022/05/06 00:50:45;;;;;;;0.00;0.00;;;17.50;63.70;;;;;;4172951;28;20044;-66
2022/05/06 00:53:08;;;;;;;0.00;0.00;;;17.50;63.80;;;;;;4181333;28;20044;-66
2022/05/06 00:55:34;;;;;;;0.00;0.00;;;17.50;63.80;;;;;;4200514;28;20072;-66
2022/05/06 00:57:57;;;;;;;0.15;0.15;;;17.50;63.80;;;;;;4189831;28;20045;-65
2022/05/06 01:00:20;;;;;;;0.10;0.10;;;17.50;64.70;;;;;;4199910;28;20060;-65
2022/05/06 01:02:44;;;;;;;0.20;0.20;;;17.50;63.80;;;;;;4187356;28;20051;-65
2022/05/06 01:05:09;;;;;;;0.00;0.00;;;17.40;63.80;;;;;;4187421;28;20068;-65
2022/05/06 01:07:33;;;;;;;0.17;0.17;;;17.50;64.00;;;;;;4205944;28;20108;-67
2022/05/06 01:09:55;;;;;;;0.00;0.00;;;17.50;64.00;;;;;;4199342;28;20066;-66
2022/05/06 01:12:22;;;;;;;1.42;1.42;;;17.40;63.90;;;;;;4211466;28;20064;-65
2022/05/06 01:14:47;;;;;;;0.00;0.00;;;17.40;63.90;;;;;;4199289;28;20056;-66
2022/05/06 01:17:22;;;;;;;0.00;0.00;;;17.40;64.00;;;;;;4213306;28;20087;-65
2022/05/06 01:19:50;;;;;;;0.00;0.00;;;17.40;64.00;;;;;;4191713;28;20483;-64
2022/05/06 01:22:15;;;;;;;0.00;0.00;;;17.40;64.00;;;;;;4191753;28;20078;-64
2022/05/06 01:24:38;;;;;;;0.00;0.00;;;17.40;64.00;;;;;;4204269;28;20047;-65
2022/05/06 01:27:04;;;;;;;0.00;0.00;;;17.40;64.00;;;;;;4205078;28;20047;-64
2022/05/06 01:29:29;;;;;;;4.05;2.25;;;17.40;64.00;;;;;;4192338;28;20131;-65
2022/05/06 01:31:55;;;;;;;0.10;0.10;;;17.40;64.00;;;;;;4206435;28;20063;-65
2022/05/06 01:34:19;;;;;;;0.05;0.05;;;17.40;64.00;;;;;;4207533;28;20044;-66
2022/05/06 01:36:42;;;;;;;0.70;0.55;;;17.40;64.20;;;;;;4207745;28;20754;-65
2022/05/06 01:39:13;;;;;;;0.28;0.17;;;17.40;64.20;;;;;;4198183;28;20227;-64
2022/05/06 01:41:41;;;;;;;0.00;0.00;;;17.40;64.20;;;;;;4211300;28;20060;-64
2022/05/06 01:44:09;;;;;;;2.63;0.70;;;17.30;64.10;;;;;;4196856;28;20030;-65
2022/05/06 01:46:36;;;;;;;0.00;0.00;;;17.30;64.10;;;;;;4204135;28;20054;-65
2022/05/06 01:49:08;;;;;;;0.10;0.10;;;17.40;64.20;;;;;;4179896;28;20060;-65
2022/05/06 01:51:33;;;;;;;0.22;0.22;;;17.30;64.20;;;;;;4205692;28;20051;-65
2022/05/06 01:54:00;;;;;;;0.80;0.80;;;17.30;64.30;;;;;;4197861;28;20047;-65
2022/05/06 01:56:25;;;;;;;0.00;0.00;;;17.30;64.30;;;;;;4195659;28;20160;-65
2022/05/06 01:58:52;;;;;;;0.00;0.00;;;17.30;64.30;;;;;;4196500;28;20483;-65
2022/05/06 02:01:15;;;;;;;0.00;0.00;;;17.30;64.30;;;;;;4191049;28;20052;-65
2022/05/06 02:06:28;;;;;;;0.60;0.60;;;17.30;64.30;;;;;;4196673;28;20060;-65
2022/05/06 02:09:03;;;;;;;1.02;1.02;;;17.30;64.30;;;;;;4204989;28;20775;-65
2022/05/06 02:11:39;;;;;;;0.00;0.00;;;17.20;64.30;;;;;;4195641;28;20052;-65
2022/05/06 02:14:14;;;;;;;0.00;0.00;;;17.20;64.30;;;;;;4190172;28;20495;-65
2022/05/06 02:16:57;;;;;;;0.00;0.00;;;17.20;64.30;;;;;;4189158;28;20419;-65
2022/05/06 02:19:42;;;;;;;0.40;0.40;;;17.20;64.40;;;;;;4208074;28;20048;-65
2022/05/06 02:22:27;;;;;;;0.85;0.85;;;17.30;64.50;;;;;;4196786;28;20146;-65
2022/05/06 02:24:55;;;;;;;0.30;0.28;;;17.20;64.50;;;;;;4205539;28;20074;-65
2022/05/06 02:27:34;;;;;;;0.00;0.00;;;17.20;64.60;;;;;;4203620;28;20514;-65
2022/05/06 02:35:25;;;;;;;0.10;0.10;;;17.20;64.60;;;;;;4201469;28;20052;-65
2022/05/06 02:37:49;;;;;;;0.03;0.03;;;17.20;64.60;;;;;;4201480;28;20063;-65
2022/05/06 02:40:17;;;;;;;0.00;0.00;;;17.20;64.70;;;;;;4203576;28;20171;-65
2022/05/06 02:42:41;;;;;;;0.47;0.47;;;17.10;64.60;;;;;;4205267;28;20048;-65
2022/05/06 02:45:09;;;;;;;0.00;0.00;;;17.10;64.60;;;;;;4191833;28;20056;-65
2022/05/06 02:47:33;;;;;;;0.00;0.00;;;17.10;64.70;;;;;;4186728;28;20527;-67
2022/05/06 02:49:57;;;;;;;0.00;0.00;;;17.10;64.70;;;;;;4179373;28;20044;-66
2022/05/06 02:52:21;;;;;;;0.93;0.93;;;17.10;64.80;;;;;;4183646;28;20059;-67
2022/05/06 02:54:44;;;;;;;0.75;0.75;;;17.10;64.80;;;;;;4190600;28;20456;-67
2022/05/06 02:57:11;;;;;;;1.77;1.65;;;17.10;64.70;;;;;;4206425;28;20439;-66
2022/05/06 02:59:39;;;;;;;0.40;0.40;;;17.10;64.80;;;;;;4192848;28;20094;-67
2022/05/06 03:02:02;;;;;;;0.32;0.32;;;17.10;64.80;;;;;;4206871;28;20427;-66
2022/05/06 03:04:25;;;;;;;0.10;0.10;;;17.10;64.80;;;;;;4207122;28;20058;-66
2022/05/06 03:06:49;;;;;;;0.57;0.20;;;17.10;64.80;;;;;;4198921;28;20112;-66
2022/05/06 03:09:30;;;;;;;0.70;0.70;;;17.10;64.90;;;;;;4199018;28;20040;-66
2022/05/06 03:11:54;;;;;;;0.03;0.03;;;17.10;65.00;;;;;;4190681;28;20052;-66
2022/05/06 03:14:20;;;;;;;0.00;0.00;;;17.00;64.90;;;;;;4204769;28;20075;-67
2022/05/06 03:17:07;;;;;;;0.10;0.10;;;17.10;64.90;;;;;;4190536;28;20078;-67
2022/05/06 03:19:31;;;;;;;0.73;0.73;;;17.00;64.90;;;;;;4212827;28;20051;-67
2022/05/06 03:21:55;;;;;;;0.00;0.00;;;17.00;65.00;;;;;;4209179;28;20044;-66
2022/05/06 03:24:18;;;;;;;0.10;0.10;;;17.00;65.00;;;;;;4207972;28;20055;-67
2022/05/06 03:26:41;;;;;;;0.20;0.20;;;17.00;65.00;;;;;;4183443;28;20510;-67
2022/05/06 03:29:07;;;;;;;0.40;0.40;;;17.00;65.00;;;;;;4197503;28;20135;-67
2022/05/06 03:31:33;;;;;;;0.10;0.10;;;17.00;65.00;;;;;;4193417;28;20058;-67
2022/05/06 03:34:01;;;;;;;0.10;0.10;;;17.00;65.00;;;;;;4199248;28;20095;-67
2022/05/06 03:36:32;;;;;;;0.03;0.03;;;17.00;65.00;;;;;;4189860;28;20047;-67
2022/05/06 03:39:01;;;;;;;0.03;0.03;;;17.00;65.00;;;;;;4205462;28;20449;-67
2022/05/06 03:41:33;;;;;;;0.00;0.00;;;17.00;65.10;;;;;;4200049;28;20064;-67
2022/05/06 03:43:57;;;;;;;0.00;0.00;;;17.00;65.10;;;;;;4173307;28;20048;-66
2022/05/06 03:46:20;;;;;;;0.57;0.57;;;17.00;65.10;;;;;;4208595;28;20097;-67
2022/05/06 03:48:45;;;;;;;0.10;0.10;;;17.00;65.20;;;;;;4206970;28;20117;-67
2022/05/06 03:51:21;;;;;;;0.45;0.45;;;17.00;65.10;;;;;;4208100;28;20503;-67
2022/05/06 03:53:54;;;;;;;0.25;0.25;;;16.90;65.10;;;;;;4207273;28;20527;-67
2022/05/06 03:56:19;;;;;;;0.00;0.00;;;16.90;65.20;;;;;;4205253;28;20142;-67
2022/05/06 03:58:43;;;;;;;0.00;0.00;;;17.00;65.20;;;;;;4208049;28;20090;-67
2022/05/06 04:01:08;;;;;;;0.00;0.00;;;16.90;65.20;;;;;;4199385;28;20486;-67
2022/05/06 04:03:32;;;;;;;1.10;1.10;;;16.90;65.20;;;;;;4205848;28;20548;-67
2022/05/06 04:05:57;;;;;;;0.20;0.20;;;16.90;65.20;;;;;;4185032;28;20044;-66
2022/05/06 04:08:21;;;;;;;0.00;0.00;;;16.90;65.30;;;;;;4207974;28;20040;-67
2022/05/06 04:10:45;;;;;;;0.03;0.03;;;16.90;65.30;;;;;;4198043;28;20056;-66
2022/05/06 04:13:09;;;;;;;0.00;0.00;;;17.00;65.30;;;;;;4192817;28;20125;-67
2022/05/06 04:15:33;;;;;;;0.10;0.10;;;16.90;65.20;;;;;;4183657;28;20048;-66
2022/05/06 04:17:57;;;;;;;0.65;0.65;;;16.90;65.20;;;;;;4206254;28;20097;-66
2022/05/06 04:25:45;;;;;;;0.00;0.00;;;16.80;65.20;;;;;;4198785;28;20090;-68
2022/05/06 04:28:13;;;;;;;0.55;0.55;;;16.90;65.30;;;;;;4200081;28;20419;-67
2022/05/06 04:30:39;;;;;;;0.00;0.00;;;16.80;65.20;;;;;;4196610;28;20143;-66
2022/05/06 04:33:06;;;;;;;0.00;0.00;;;16.80;65.20;;;;;;4216955;28;20051;-67
2022/05/06 04:35:30;;;;;;;0.00;0.00;;;16.80;65.20;;;;;;4213542;28;20386;-68
2022/05/06 04:37:55;;;;;;;0.70;0.70;;;16.80;65.30;;;;;;4208671;28;20044;-66
2022/05/06 04:40:19;;;;;;;0.00;0.00;;;16.80;65.30;;;;;;4207113;28;20056;-67
2022/05/06 04:42:45;;;;;;;0.30;0.30;;;16.80;65.40;;;;;;4200496;28;20377;-68
2022/05/06 04:45:11;;;;;;;0.13;0.10;;;16.80;65.50;;;;;;4207819;28;20115;-69
2022/05/06 04:47:43;;;;;;;0.50;0.50;;;16.80;65.50;;;;;;4194193;28;20056;-66
2022/05/06 04:50:07;;;;;;;0.57;0.57;;;16.80;66.40;;;;;;4206501;28;20044;-67
2022/05/06 04:52:30;;;;;;;0.93;0.90;;;16.90;67.20;;;;;;4194600;28;20144;-67
2022/05/06 04:54:52;;;;;;;0.00;0.00;;;16.90;67.10;;;;;;4209697;28;20036;-68
2022/05/06 04:57:17;;;;;;;0.00;0.00;;;16.90;66.90;;;;;;4209552;28;20457;-68
2022/05/06 04:59:47;;;;;;;0.00;0.00;;;16.90;66.70;;;;;;4207666;28;20121;-67
2022/05/06 05:02:11;;;;;;;0.00;0.00;;;16.90;66.40;;;;;;4208886;28;20203;-67
2022/05/06 05:04:33;;;;;;;0.20;0.20;;;16.90;66.20;;;;;;4192963;28;20066;-67
2022/05/06 05:07:04;;;;;;;0.00;0.00;;;16.90;66.00;;;;;;4207699;28;20044;-68
2022/05/06 05:09:32;;;;;;;0.00;0.00;;;16.80;65.90;;;;;;4207146;28;20530;-67
2022/05/06 05:11:55;;;;;;;0.00;0.00;;;16.80;66.00;;;;;;4192575;28;20094;-66
2022/05/06 05:14:27;;;;;;;1.88;0.40;;;16.80;67.00;;;;;;4205045;28;20689;-67
2022/05/06 05:16:54;;;;;;;0.10;0.10;;;16.80;66.10;;;;;;4191127;28;20103;-67
2022/05/06 05:19:16;;;;;;;0.00;0.00;;;16.80;66.10;;;;;;4204458;28;20093;-67
2022/05/06 05:21:47;;;;;;;0.00;0.00;;;16.80;66.20;;;;;;4205438;28;20173;-65
2022/05/06 05:24:10;;;;;;;0.10;0.10;;;16.80;66.30;;;;;;4191042;28;20052;-66
2022/05/06 05:26:35;;;;;;;0.00;0.00;;;16.80;66.40;;;;;;4182732;28;20522;-67
2022/05/06 05:28:58;;;;;;;0.10;0.10;;;16.80;66.40;;;;;;4206099;28;20052;-67
2022/05/06 05:31:22;;;;;;;1.08;1.08;;;16.80;66.40;;;;;;4206088;28;20071;-67
2022/05/06 05:33:48;;;;;;;0.55;0.55;;;16.80;66.60;;;;;;4191509;28;20084;-67
2022/05/06 05:36:11;;;;;;;0.43;0.43;;;16.70;66.60;;;;;;4205376;28;20040;-66
2022/05/06 05:38:34;;;;;;;0.38;0.38;;;16.80;66.70;;;;;;4204713;28;20073;-66
2022/05/06 05:40:58;;;;;;;0.00;0.00;;;16.70;66.80;;;;;;4206226;28;20044;-67
2022/05/06 05:48:51;;;;;;;16.88;4.18;;;16.70;66.90;;;;;;4189997;28;20454;-66
2022/05/06 05:51:16;;;;;;;0.10;0.10;;;16.80;67.00;;;;;;4197644;28;20581;-67
2022/05/06 05:53:48;;;;;;;0.57;0.57;;;16.80;67.00;;;;;;4202589;28;20122;-66
2022/05/06 05:56:11;;;;;;;0.08;0.08;;;16.80;66.90;;;;;;4206500;28;20366;-67
2022/05/06 05:58:34;;;;;;;0.10;0.10;;;16.80;67.00;;;;;;4204744;28;20492;-67
2022/05/06 06:01:01;;;;;;;0.10;0.10;;;16.80;67.00;;;;;;4191069;28;20480;-66
2022/05/06 06:03:28;;;;;;;0.65;0.65;;;16.80;67.00;;;;;;4204390;28;20043;-66
2022/05/06 06:05:52;;;;;;;0.00;0.00;;;16.80;67.10;;;;;;4191684;28;20036;-66
2022/05/06 06:08:15;;;;;;;0.73;0.73;;;16.80;67.10;;;;;;4205799;28;20122;-66
2022/05/06 06:10:40;;;;;;;0.00;0.00;;;16.80;67.10;;;;;;4190756;28;20040;-66
2022/05/06 06:13:05;;;;;;;0.10;0.10;;;16.80;67.20;;;;;;4204253;28;20051;-66
2022/05/06 06:15:32;;;;;;;0.75;0.75;;;16.80;67.20;;;;;;4201106;28;20067;-67
2022/05/06 06:17:57;;;;;;;5.30;0.52;;;16.80;67.20;;;;;;4186414;28;20059;-66
2022/05/06 06:20:23;;;;;;;19.10;2.13;;;16.90;67.20;;;;;;4215553;28;20048;-66
2022/05/06 06:22:51;;;;;;;0.75;0.75;;;16.80;67.20;;;;;;4204491;28;20466;-66
2022/05/06 06:25:14;;;;;;;0.68;0.68;;;16.80;67.20;;;;;;4204539;28;20081;-66
2022/05/06 06:27:37;;;;;;;0.57;0.57;;;16.80;67.20;;;;;;4204880;28;20052;-66
2022/05/06 06:30:06;;;;;;;1.20;1.10;;;16.80;67.20;;;;;;4205719;28;20058;-67
2022/05/06 06:32:29;;;;;;;0.00;0.00;;;16.80;67.30;;;;;;4206605;28;20419;-67
2022/05/06 06:34:55;;;;;;;1.42;1.38;;;16.80;67.30;;;;;;4196185;28;20143;-66
2022/05/06 06:37:25;;;;;;;0.73;0.35;;;16.80;67.40;;;;;;4204584;28;20073;-67
2022/05/06 06:39:50;;;;;;;0.20;0.20;;;16.80;67.50;;;;;;4205376;28;20051;-67
2022/05/06 06:42:13;;;;;;;0.30;0.30;;;16.80;67.60;;;;;;4205319;28;20094;-67
2022/05/06 06:44:56;;;;;;;0.10;0.10;;;16.80;67.70;;;;;;4205040;28;20056;-67
2022/05/06 06:47:37;;;;;;;0.03;0.03;;;16.80;67.70;;;;;;4206081;28;20079;-67
2022/05/06 06:50:24;;;;;;;0.47;0.47;;;16.80;67.60;;;;;;4204101;28;20253;-67
2022/05/06 06:53:05;;;;;;;;;;;16.80;67.70;;;;;;4209871;28;20106;-67
2022/05/06 06:55:30;;;;;;;0.03;0.03;;;16.80;67.60;;;;;;4203959;28;19930;-67
2022/05/06 06:57:52;;;;;;;2.13;2.03;;;16.80;67.60;;;;;;4193384;28;20054;-67
2022/05/06 07:00:15;;;;;;;15.80;1.25;;;16.90;67.70;;;;;;4191476;28;20427;-67
2022/05/06 07:02:38;;;;;;;0.08;0.08;;;16.90;67.70;;;;;;4205125;28;20056;-67
2022/05/06 07:05:01;;;;;;;0.10;0.10;;;16.90;67.50;;;;;;4211037;28;20043;-66
2022/05/06 07:12:51;;;;;;;0.28;0.28;;;17.00;67.20;;;;;;4197809;28;20047;-66
2022/05/06 07:15:16;;;;;;;1.60;0.63;;;17.00;67.10;;;;;;4180278;28;20518;-66
2022/05/06 07:17:41;;;;;;;0.20;0.20;;;17.00;67.00;;;;;;4198340;28;20048;-66
2022/05/06 07:20:07;;;;;;;0.00;0.00;;;17.00;67.00;;;;;;4196337;28;20047;-67
2022/05/06 07:22:29;;;;;;;0.68;0.68;;;17.00;67.10;;;;;;4204936;28;20047;-66
2022/05/06 07:24:53;;;;;;;2.42;1.27;;;17.00;67.10;;;;;;4181665;28;20056;-66
2022/05/06 07:27:17;;;;;;;0.30;0.30;;;17.10;67.20;;;;;;4205574;28;20044;-67
2022/05/06 07:29:42;;;;;;;8.48;0.65;;;17.10;67.20;;;;;;4188515;28;20052;-67
2022/05/06 07:32:05;;;;;;;0.00;0.00;;;17.10;67.00;;;;;;4206626;28;20131;-67
2022/05/06 07:34:28;;;;;;;0.08;0.08;;;17.20;67.10;;;;;;4204722;28;20051;-66
2022/05/06 07:36:51;;;;;;;0.57;0.57;;;17.20;67.10;;;;;;4194784;28;20048;-64
2022/05/06 07:39:17;;;;;;;0.32;0.32;;;17.30;67.10;;;;;;4209628;28;20051;-65
2022/05/06 07:41:40;;;;;;;0.38;0.38;;;17.30;66.90;;;;;;4210440;28;20093;-66
2022/05/06 07:44:04;;;;;;;0.85;0.85;;;17.30;66.80;;;;;;4208907;28;20151;-64
2022/05/06 07:46:28;;;;;;;1.35;1.10;;;17.30;66.80;;;;;;4192565;28;20071;-65
2022/05/06 07:48:51;;;;;;;0.90;0.28;;;17.30;66.90;;;;;;4209035;28;20068;-65
2022/05/06 07:51:13;;;;;;;0.20;0.20;;;17.40;67.00;;;;;;4208995;28;20051;-65
2022/05/06 07:53:36;;;;;;;0.55;0.55;;;17.40;67.00;;;;;;4200232;28;20047;-64
2022/05/06 07:56:00;;;;;;;4.38;1.13;;;17.40;67.20;;;;;;4220319;28;20063;-65
2022/05/06 07:58:23;;;;;;;3.92;1.17;;;17.40;67.20;;;;;;4191125;28;20040;-64
2022/05/06 08:00:50;;;;;;;0.28;0.28;;;17.30;67.10;;;;;;4202292;28;21429;-65
2022/05/06 08:05:59;;;;;;;0.00;0.00;;;17.40;67.20;;;;;;4198783;28;20101;-66
2022/05/06 08:08:23;;;;;;;0.25;0.25;;;17.40;67.40;;;;;;4192080;28;20077;-65
2022/05/06 08:10:45;;;;;;;0.60;0.60;;;17.40;67.70;;;;;;4191257;28;20041;-66
2022/05/06 08:13:07;;;;;;;1.58;1.50;;;17.40;68.10;;;;;;4192641;28;20053;-67
2022/05/06 08:15:30;;;;;;;1.13;0.85;;;17.40;68.50;;;;;;4206966;28;20052;-64
2022/05/06 08:17:53;;;;;;;0.05;0.05;;;17.40;68.60;;;;;;4209404;28;20113;-66
2022/05/06 08:20:17;;;;;;;0.52;0.52;;;17.50;68.60;;;;;;4206301;28;20135;-64
2022/05/06 08:22:40;;;;;;;0.38;0.38;;;17.40;68.40;;;;;;4199579;28;20040;-66
2022/05/06 08:25:03;;;;;;;2.03;1.92;;;17.50;68.30;;;;;;4207451;28;20051;-66
2022/05/06 08:27:45;;;;;;;0.10;0.10;;;17.50;68.30;;;;;;4208886;28;20040;-66
2022/05/06 08:30:10;;;;;;;0.00;0.00;;;17.50;68.10;;;;;;4209151;28;20441;-66
2022/05/06 08:32:35;;;;;;;1.17;0.82;;;17.50;68.10;;;;;;4194005;28;20033;-64
2022/05/06 08:34:57;;;;;;;0.03;0.03;;;17.50;68.00;;;;;;4208420;28;20059;-65
2022/05/06 08:37:22;;;;;;;0.35;0.35;;;17.60;68.00;;;;;;4207096;28;20048;-66
2022/05/06 08:39:46;;;;;;;0.75;0.75;;;17.60;67.90;;;;;;4206515;28;20563;-65
2022/05/06 08:42:11;;;;;;;0.10;0.10;;;17.50;67.80;;;;;;4200250;28;20097;-66
2022/05/06 08:52:43;;;;;;;0.00;0.00;;;17.60;67.60;;;;;;4207518;28;20040;-66
2022/05/06 08:55:07;;;;;;;3.25;0.90;;;17.60;67.50;;;;;;4208896;28;20044;-67
2022/05/06 08:57:31;;;;;;;0.93;0.93;;;17.70;67.40;;;;;;4208251;28;20047;-66
2022/05/06 08:59:54;;;;;;;5.40;2.17;;;17.60;67.30;;;;;;4207071;28;20151;-65
2022/05/06 09:02:20;;;;;;;0.30;0.30;;;17.70;67.30;;;;;;4206037;28;20174;-67
2022/05/06 09:04:43;;;;;;;1.52;1.35;;;17.70;67.30;;;;;;4208107;28;20055;-65
2022/05/06 09:07:17;;;;;;;0.20;0.20;;;17.70;67.20;;;;;;4208562;28;20047;-67
2022/05/06 09:09:41;;;;;;;0.10;0.10;;;17.70;67.20;;;;;;4207231;28;20134;-67
2022/05/06 09:17:39;;;;;;;1.95;1.52;;;17.80;67.30;;;;;;4146588;28;20068;-67
2022/05/06 09:20:18;;;;;;;0.45;0.45;;;17.80;67.20;;;;;;4156140;28;20128;-67
2022/05/06 09:22:40;;;;;;;0.13;0.13;;;17.90;66.80;;;;;;4178321;27;20851;-68
2022/05/06 09:25:04;;;;;;;8.18;2.22;;;18.00;66.60;;;;;;4216847;27;20051;-67
2022/05/06 09:27:30;;;;;;;1.05;1.05;;;18.00;66.30;;;;;;4190586;28;20052;-68
2022/05/06 09:29:54;;;;;;;0.45;0.45;;;18.00;66.20;;;;;;4189034;28;20563;-68
2022/05/06 09:32:20;;;;;;;0.05;0.05;;;18.00;66.00;;;;;;4216146;28;20117;-68
2022/05/06 09:34:43;;;;;;;1.00;1.00;;;18.10;65.90;;;;;;4197635;28;20054;-67
2022/05/06 09:37:06;;;;;;;0.03;0.03;;;18.10;65.70;;;;;;4207135;28;20404;-68
2022/05/06 09:39:29;;;;;;;0.00;0.00;;;18.20;65.70;;;;;;4207731;28;20053;-68
2022/05/06 09:42:04;;;;;;;0.00;0.00;;;18.20;65.50;;;;;;4207421;28;20044;-68
2022/05/06 09:44:28;;;;;;;0.70;0.70;;;18.20;65.20;;;;;;4207426;28;20079;-69
2022/05/06 09:47:11;;;;;;;1.00;0.43;;;18.30;65.10;;;;;;4208347;28;20047;-68
2022/05/06 09:49:41;;;;;;;0.75;0.38;;;18.40;64.90;;;;;;4204314;28;20048;-68
2022/05/06 09:52:12;;;;;;;0.65;0.65;;;18.40;64.60;;;;;;4207967;28;20040;-68
2022/05/06 09:54:37;;;;;;;0.00;0.00;;;18.50;64.40;;;;;;4212018;28;20051;-68
2022/05/06 09:57:03;;;;;;;0.38;0.38;;;18.50;64.20;;;;;;4207013;28;20545;-68
2022/05/06 09:59:28;;;;;;;0.00;0.00;;;18.50;64.10;;;;;;4199679;28;20051;-69
2022/05/06 10:01:51;;;;;;;0.32;0.32;;;18.60;64.00;;;;;;4209379;28;20138;-69
2022/05/06 10:04:13;;;;;;;0.00;0.00;;;18.60;63.80;;;;;;4206990;28;20048;-67
2022/05/06 10:06:36;;;;;;;0.85;0.70;;;18.60;64.30;;;;;;4207605;28;20062;-66
2022/05/06 10:09:02;;;;;;;0.08;0.08;;;18.60;64.20;;;;;;4209835;28;20047;-67
2022/05/06 10:11:28;;;;;;;0.52;0.52;;;18.70;64.00;;;;;;4207298;28;20079;-66
2022/05/06 10:13:58;;;;;;;0.13;0.13;;;18.70;63.80;;;;;;4207433;28;20505;-66
2022/05/06 10:16:20;;;;;;;0.00;0.00;;;18.70;63.70;;;;;;4193467;28;20073;-65
2022/05/06 10:18:44;;;;;;;0.00;0.00;;;18.70;63.50;;;;;;4196870;28;20055;-65
2022/05/06 10:21:07;;;;;;;0.10;0.10;;;18.70;63.40;;;;;;4206878;28;20047;-64
2022/05/06 10:23:57;;;;;;;0.00;0.00;;;18.80;63.30;;;;;;4206679;28;20051;-66
2022/05/06 10:26:43;;;;;;;0.85;0.85;;;18.80;63.20;;;;;;4207534;28;20052;-66
2022/05/06 10:34:29;;;;;;;0.05;0.05;;;18.90;62.90;;;;;;4191289;28;20048;-64
2022/05/06 10:36:53;;;;;;;0.00;0.00;;;18.90;62.60;;;;;;4192332;28;20068;-66
2022/05/06 10:39:20;;;;;;;8.07;1.77;;;19.00;62.70;;;;;;4191426;28;20052;-65
2022/05/06 10:42:00;;;;;;;0.00;0.00;;;19.00;62.50;;;;;;4191566;28;20071;-66
2022/05/06 10:44:40;;;;;;;0.10;0.10;;;19.00;62.40;;;;;;4215953;28;20075;-65
2022/05/06 10:47:03;;;;;;;0.45;0.45;;;19.10;62.30;;;;;;4208221;28;20044;-66
2022/05/06 10:49:50;;;;;;;0.00;0.00;;;19.10;62.20;;;;;;4206849;28;20062;-67
2022/05/06 10:52:41;;;;;;;0.10;0.10;;;19.10;62.10;;;;;;4206368;28;20040;-66
2022/05/06 10:55:04;;;;;;;0.00;0.00;;;19.10;61.90;;;;;;4208453;28;20056;-66
2022/05/06 10:57:28;;;;;;;1.60;0.47;;;19.20;61.90;;;;;;4208002;28;20309;-66
2022/05/06 10:59:54;;;;;;;0.00;0.00;;;19.20;61.90;;;;;;4209233;28;20047;-67
2022/05/06 11:02:17;;;;;;;0.10;0.10;;;19.20;61.80;;;;;;4208083;28;20056;-66
2022/05/06 11:04:40;;;;;;;0.00;0.00;;;19.20;61.70;;;;;;4207831;28;20536;-65
2022/05/06 11:07:12;;;;;;;0.00;0.00;;;19.20;61.60;;;;;;4207537;28;20056;-66
2022/05/06 11:09:34;;;;;;;0.00;0.00;;;19.30;61.60;;;;;;4207703;28;20399;-66
2022/05/06 11:11:57;;;;;;;0.10;0.10;;;19.20;61.40;;;;;;4206808;28;20055;-66
2022/05/06 11:14:20;;;;;;;4.63;0.30;;;19.30;61.40;;;;;;4211541;28;20055;-68
2022/05/06 11:16:47;;;;;;;0.00;0.00;;;19.30;61.30;;;;;;4211729;28;20564;-65
2022/05/06 11:19:11;;;;;;;0.00;0.00;;;19.30;61.20;;;;;;4211124;28;20465;-66
2022/05/06 11:21:33;;;;;;;0.00;0.00;;;19.40;61.10;;;;;;4211003;28;20127;-66
2022/05/06 11:23:55;;;;;;;0.00;0.00;;;19.40;61.00;;;;;;4211508;28;20042;-66
2022/05/06 11:26:24;;;;;;;0.00;0.00;;;19.40;60.90;;;;;;4209325;28;20499;-66
2022/05/06 11:29:01;;;;;;;0.00;0.00;;;19.40;60.80;;;;;;4211221;28;20070;-66
2022/05/06 11:31:23;;;;;;;0.00;0.00;;;19.50;60.70;;;;;;4209325;28;20063;-65
2022/05/06 11:33:47;;;;;;;0.10;0.10;;;19.50;60.60;;;;;;4211131;28;20105;-64
2022/05/06 11:36:14;;;;;;;1.00;0.57;;;19.50;60.40;;;;;;4195886;28;20103;-66
2022/05/06 11:38:38;;;;;;;0.00;0.00;;;19.50;60.30;;;;;;4211289;28;20067;-66
2022/05/06 11:41:09;;;;;;;0.00;0.00;;;19.50;60.10;;;;;;4211123;28;20052;-66
2022/05/06 11:43:31;;;;;;;0.00;0.00;;;19.50;59.90;;;;;;4210328;28;20051;-66
2022/05/06 11:48:40;;;;;;;0.20;0.20;;;19.60;59.70;;;;;;4211048;28;20051;-66
2022/05/06 11:51:11;;;;;;;0.35;0.35;;;19.60;59.60;;;;;;4210899;28;20071;-66
2022/05/06 11:53:35;;;;;;;0.00;0.00;;;19.70;59.60;;;;;;4209550;28;20059;-65
2022/05/06 11:55:58;;;;;;;0.00;0.00;;;19.70;60.00;;;;;;4205845;28;20044;-64
2022/05/06 11:58:20;;;;;;;0.00;0.00;;;19.70;59.50;;;;;;4208164;28;20122;-65
2022/05/06 12:00:43;;;;;;;0.00;0.00;;;19.70;59.40;;;;;;4210730;28;20509;-65
2022/05/06 12:03:09;;;;;;;0.00;0.00;;;19.70;59.20;;;;;;4210861;28;20074;-65
2022/05/06 12:05:32;;;;;;;0.05;0.05;;;19.70;59.30;;;;;;4210664;28;20459;-65
2022/05/06 12:07:55;;;;;;;0.00;0.00;;;19.80;59.20;;;;;;4210942;28;20528;-65
2022/05/06 12:10:25;;;;;;;0.28;0.28;;;19.80;59.20;;;;;;4211260;28;20139;-65
2022/05/06 12:12:54;;;;;;;0.00;0.00;;;19.80;59.10;;;;;;4210828;28;20051;-65
2022/05/06 12:15:17;;;;;;;0.00;0.00;;;19.80;59.00;;;;;;4194113;28;20499;-66
2022/05/06 12:17:39;;;;;;;0.20;0.20;;;19.80;59.60;;;;;;4192389;28;20086;-65
2022/05/06 12:20:01;;;;;;;0.32;0.32;;;19.90;58.90;;;;;;4194229;28;20419;-65
2022/05/06 12:22:25;;;;;;;0.10;0.10;;;19.90;58.90;;;;;;4203010;28;20052;-65
2022/05/06 12:24:50;;;;;;;0.00;0.00;;;19.90;58.80;;;;;;4210172;28;20545;-65
2022/05/06 12:27:13;;;;;;;0.05;0.05;;;20.00;58.70;;;;;;4210424;28;20486;-65
2022/05/06 12:29:37;;;;;;;0.00;0.00;;;20.00;58.70;;;;;;4210829;28;20071;-65
2022/05/06 12:32:01;;;;;;;0.00;0.00;;;20.00;58.60;;;;;;4194627;28;20127;-65
2022/05/06 12:34:29;;;;;;;0.00;0.00;;;20.00;58.60;;;;;;4209028;28;20082;-66
2022/05/06 12:36:51;;;;;;;0.00;0.00;;;20.00;58.60;;;;;;4209112;28;20135;-64
2022/05/06 12:39:18;;;;;;;0.00;0.00;;;20.00;58.50;;;;;;4210427;28;20064;-65
2022/05/06 12:41:43;;;;;;;0.00;0.00;;;20.10;58.60;;;;;;4210305;28;20072;-66
2022/05/06 12:44:16;;;;;;;0.47;0.47;;;20.10;58.60;;;;;;4211288;28;20050;-65
2022/05/06 12:46:39;;;;;;;0.00;0.00;;;20.10;58.60;;;;;;4210954;28;20054;-65
2022/05/06 12:51:42;;;;;;;0.00;0.00;;;20.20;58.60;;;;;;4210299;28;20079;-65
2022/05/06 12:54:04;;;;;;;0.00;0.00;;;20.20;58.60;;;;;;4210207;28;20048;-64
2022/05/06 12:56:26;;;;;;;0.00;0.00;;;20.20;58.50;;;;;;4201656;28;20052;-65
2022/05/06 12:58:50;;;;;;;0.00;0.00;;;20.20;58.50;;;;;;4210288;28;20101;-65
2022/05/06 13:01:12;;;;;;;0.00;0.00;;;20.30;58.60;;;;;;4210595;28;20051;-65
2022/05/06 13:03:34;;;;;;;0.73;0.50;;;20.30;58.60;;;;;;4210026;28;20044;-65
2022/05/06 13:05:56;;;;;;;0.00;0.00;;;20.30;58.50;;;;;;4210223;28;20517;-65
2022/05/06 13:08:18;;;;;;;0.00;0.00;;;20.40;58.70;;;;;;4193462;28;20099;-65
2022/05/06 13:10:41;;;;;;;0.52;0.52;;;20.40;58.70;;;;;;4193263;28;20060;-65
2022/05/06 13:13:07;;;;;;;0.00;0.00;;;20.40;58.70;;;;;;4192196;28;20181;-64
2022/05/06 13:15:31;;;;;;;0.00;0.00;;;20.40;58.70;;;;;;4210312;28;20044;-65
2022/05/06 13:17:53;;;;;;;0.43;0.43;;;20.50;58.70;;;;;;4209718;28;20494;-65
2022/05/06 13:20:15;;;;;;;0.00;0.00;;;20.40;58.60;;;;;;4209898;28;20046;-65
2022/05/06 13:22:38;;;;;;;0.00;0.00;;;20.40;58.60;;;;;;4209492;28;20066;-64
2022/05/06 13:25:02;;;;;;;0.08;0.08;;;20.50;58.70;;;;;;4208004;28;20103;-65
2022/05/06 13:27:24;;;;;;;0.00;0.00;;;20.50;58.70;;;;;;4210215;28;20075;-64
2022/05/06 13:29:46;;;;;;;0.00;0.00;;;20.50;58.70;;;;;;4209914;28;20059;-65
2022/05/06 13:32:10;;;;;;;0.00;0.00;;;20.50;59.50;;;;;;4209754;28;20044;-65